THY1525 LTFM-EDDB
Flight info
| Callsign | THY1525 |
|---|---|
| Flight time | N/A |
| Altitude | 34000 |
| Route | TUDBU1E/36 TUDBU Q26 ETUBA DCT EVRIK DCT LITKU DCT ROMIS DCT BEFRE T204 NUKRO |
| Aircraft | A320/M-SDE3FGHIRWY/LB1 |
Departure
| Time | 2026-05-05 15:47 |
|---|---|
| Airport | İstanbul Airport (LTFM) |
Arrival
| Time | N/A |
|---|---|
| Airport | Berlin Brandenburg Airport (EDDB) |
| Time | Latitude | Longitude | Altitude | Speed | Heading |
|---|---|---|---|---|---|
| 2026-05-05 15:22 | 41.25735 | 28.75044 | 334 ft | 0 kts | 2° |
| 2026-05-05 15:38 | 41.25734 | 28.75044 | 334 ft | 1 kts | 2° |
| 2026-05-05 15:38 | 41.25710 | 28.75042 | 331 ft | 4 kts | 5° |
| 2026-05-05 15:39 | 41.25684 | 28.75038 | 330 ft | 4 kts | 11° |
| 2026-05-05 15:39 | 41.25659 | 28.75028 | 331 ft | 4 kts | 34° |
| 2026-05-05 15:39 | 41.25646 | 28.75008 | 331 ft | 1 kts | 89° |
| 2026-05-05 15:39 | 41.25646 | 28.75001 | 331 ft | 0 kts | 89° |
| 2026-05-05 15:43 | 41.25646 | 28.75006 | 331 ft | 3 kts | 89° |
| 2026-05-05 15:43 | 41.25648 | 28.75176 | 330 ft | 29 kts | 89° |
| 2026-05-05 15:43 | 41.25653 | 28.75397 | 334 ft | 11 kts | 88° |
| 2026-05-05 15:43 | 41.25653 | 28.75409 | 334 ft | 0 kts | 83° |
| 2026-05-05 15:44 | 41.25691 | 28.75403 | 334 ft | 13 kts | 341° |
| 2026-05-05 15:44 | 41.25856 | 28.75399 | 334 ft | 30 kts | 359° |
| 2026-05-05 15:44 | 41.26067 | 28.75395 | 330 ft | 31 kts | 359° |
| 2026-05-05 15:44 | 41.26279 | 28.75392 | 330 ft | 30 kts | 359° |
| 2026-05-05 15:45 | 41.26423 | 28.75405 | 332 ft | 13 kts | 51° |
| 2026-05-05 15:45 | 41.26425 | 28.75519 | 330 ft | 5 kts | 89° |
| 2026-05-05 15:45 | 41.26425 | 28.75520 | 330 ft | 0 kts | 89° |
| 2026-05-05 15:45 | 41.26425 | 28.75578 | 332 ft | 21 kts | 88° |
| 2026-05-05 15:46 | 41.26444 | 28.75665 | 331 ft | 0 kts | 355° |
| 2026-05-05 15:46 | 41.26445 | 28.75664 | 331 ft | 0 kts | 355° |
| 2026-05-05 15:46 | 41.26653 | 28.75659 | 333 ft | 64 kts | 359° |
| 2026-05-05 15:46 | 41.27307 | 28.75646 | 331 ft | 120 kts | 359° |
| 2026-05-05 15:47 | 41.28289 | 28.75626 | 338 ft | 162 kts | 359° |
| 2026-05-05 15:47 | 41.29041 | 28.75613 | 681 ft | 160 kts | 360° |
| 2026-05-05 15:47 | 41.30406 | 28.76219 | 1606 ft | 161 kts | 44° |
| 2026-05-05 15:47 | 41.31225 | 28.77228 | 2242 ft | 160 kts | 32° |
| 2026-05-05 15:48 | 41.32170 | 28.78006 | 2876 ft | 159 kts | 27° |
| 2026-05-05 15:48 | 41.33149 | 28.78730 | 3371 ft | 168 kts | 26° |
| 2026-05-05 15:48 | 41.34260 | 28.79468 | 3595 ft | 188 kts | 14° |
| 2026-05-05 15:48 | 41.35576 | 28.79437 | 3784 ft | 208 kts | 338° |
| 2026-05-05 15:49 | 41.36742 | 28.78163 | 4056 ft | 232 kts | 311° |
| 2026-05-05 15:49 | 41.37814 | 28.76422 | 4542 ft | 250 kts | 311° |
| 2026-05-05 15:49 | 41.38904 | 28.74600 | 5365 ft | 254 kts | 311° |
| 2026-05-05 15:49 | 41.40010 | 28.72747 | 6221 ft | 256 kts | 312° |
| 2026-05-05 15:50 | 41.41129 | 28.70879 | 7055 ft | 258 kts | 312° |
| 2026-05-05 15:50 | 41.42255 | 28.69006 | 7847 ft | 261 kts | 313° |
| 2026-05-05 15:50 | 41.43398 | 28.67109 | 8649 ft | 263 kts | 313° |
| 2026-05-05 15:50 | 41.44550 | 28.65197 | 9421 ft | 266 kts | 313° |
| 2026-05-05 15:51 | 41.45713 | 28.63264 | 10176 ft | 269 kts | 313° |
| 2026-05-05 15:51 | 41.46938 | 28.61239 | 10414 ft | 292 kts | 313° |
| 2026-05-05 15:51 | 41.48266 | 28.59050 | 10554 ft | 314 kts | 313° |
| 2026-05-05 15:51 | 41.49684 | 28.56712 | 10772 ft | 332 kts | 312° |
| 2026-05-05 15:52 | 41.51150 | 28.54284 | 11281 ft | 338 kts | 312° |
| 2026-05-05 15:52 | 41.52612 | 28.51852 | 11843 ft | 342 kts | 312° |
| 2026-05-05 15:52 | 41.54107 | 28.49358 | 12452 ft | 346 kts | 312° |
| 2026-05-05 15:52 | 41.55619 | 28.46828 | 13071 ft | 349 kts | 312° |
| 2026-05-05 15:53 | 41.57140 | 28.44283 | 13684 ft | 353 kts | 312° |
| 2026-05-05 15:53 | 41.58679 | 28.41714 | 14253 ft | 356 kts | 312° |
| 2026-05-05 15:53 | 41.60235 | 28.39123 | 14784 ft | 359 kts | 312° |
| 2026-05-05 15:53 | 41.61805 | 28.36507 | 15301 ft | 362 kts | 312° |
| 2026-05-05 15:54 | 41.63385 | 28.33873 | 15815 ft | 365 kts | 312° |
| 2026-05-05 15:54 | 41.64981 | 28.31204 | 16322 ft | 368 kts | 311° |
| 2026-05-05 15:54 | 41.66584 | 28.28516 | 16853 ft | 370 kts | 312° |
| 2026-05-05 15:54 | 41.67647 | 28.26733 | 17213 ft | 372 kts | 312° |
| 2026-05-05 15:55 | 41.69266 | 28.24022 | 17744 ft | 374 kts | 312° |
| 2026-05-05 15:55 | 41.70898 | 28.21284 | 18270 ft | 377 kts | 312° |
| 2026-05-05 15:55 | 41.72537 | 28.18529 | 18753 ft | 380 kts | 311° |
| 2026-05-05 15:55 | 41.74190 | 28.15748 | 19209 ft | 383 kts | 311° |
| 2026-05-05 15:56 | 41.75854 | 28.12947 | 19681 ft | 386 kts | 311° |
| 2026-05-05 15:56 | 41.77531 | 28.10121 | 20137 ft | 389 kts | 311° |
| 2026-05-05 15:56 | 41.79219 | 28.07275 | 20577 ft | 392 kts | 311° |
| 2026-05-05 15:56 | 41.80923 | 28.04400 | 21002 ft | 395 kts | 311° |
| 2026-05-05 15:57 | 41.82637 | 28.01502 | 21389 ft | 399 kts | 310° |
| 2026-05-05 15:57 | 41.84366 | 27.98579 | 21760 ft | 403 kts | 310° |
| 2026-05-05 15:57 | 41.86116 | 27.95621 | 22155 ft | 406 kts | 310° |
| 2026-05-05 15:57 | 41.87856 | 27.92679 | 22540 ft | 408 kts | 310° |
| 2026-05-05 15:58 | 41.89628 | 27.89678 | 22942 ft | 411 kts | 310° |
| 2026-05-05 15:58 | 41.91407 | 27.86660 | 23336 ft | 414 kts | 310° |
| 2026-05-05 15:58 | 41.93199 | 27.83608 | 23695 ft | 417 kts | 310° |
| 2026-05-05 15:58 | 41.94995 | 27.80547 | 24073 ft | 418 kts | 310° |
| 2026-05-05 15:59 | 41.96831 | 27.77511 | 24408 ft | 418 kts | 315° |
| 2026-05-05 15:59 | 41.98871 | 27.74702 | 24702 ft | 420 kts | 317° |
| 2026-05-05 15:59 | 42.00930 | 27.71896 | 25000 ft | 423 kts | 316° |
| 2026-05-05 15:59 | 42.02997 | 27.69067 | 25305 ft | 425 kts | 316° |
| 2026-05-05 16:00 | 42.05079 | 27.66216 | 25602 ft | 428 kts | 316° |
| 2026-05-05 16:00 | 42.07170 | 27.63349 | 25909 ft | 430 kts | 316° |
| 2026-05-05 16:00 | 42.09273 | 27.60466 | 26233 ft | 432 kts | 317° |
| 2026-05-05 16:00 | 42.11374 | 27.57582 | 26648 ft | 431 kts | 317° |
| 2026-05-05 16:01 | 42.13480 | 27.54692 | 26981 ft | 433 kts | 317° |
| 2026-05-05 16:01 | 42.15588 | 27.51794 | 27344 ft | 434 kts | 316° |
| 2026-05-05 16:01 | 42.17707 | 27.48871 | 27690 ft | 436 kts | 316° |
| 2026-05-05 16:01 | 42.19821 | 27.45945 | 28079 ft | 436 kts | 316° |
| 2026-05-05 16:02 | 42.21939 | 27.43010 | 28506 ft | 436 kts | 316° |
| 2026-05-05 16:02 | 42.24055 | 27.40080 | 28928 ft | 436 kts | 316° |
| 2026-05-05 16:02 | 42.26174 | 27.37148 | 29419 ft | 434 kts | 316° |
| 2026-05-05 16:02 | 42.28248 | 27.34281 | 29963 ft | 431 kts | 316° |
| 2026-05-05 16:03 | 42.30342 | 27.31382 | 30389 ft | 430 kts | 316° |
| 2026-05-05 16:03 | 42.32429 | 27.28491 | 30757 ft | 430 kts | 316° |
| 2026-05-05 16:03 | 42.34515 | 27.25596 | 31133 ft | 430 kts | 316° |
| 2026-05-05 16:03 | 42.36595 | 27.22705 | 31505 ft | 429 kts | 316° |
| 2026-05-05 16:04 | 42.38681 | 27.19801 | 31870 ft | 429 kts | 316° |
| 2026-05-05 16:04 | 42.40764 | 27.16902 | 32234 ft | 429 kts | 316° |
| 2026-05-05 16:04 | 42.42829 | 27.14023 | 32784 ft | 423 kts | 316° |
| 2026-05-05 16:04 | 42.44869 | 27.11177 | 33276 ft | 421 kts | 316° |
| 2026-05-05 16:05 | 42.46913 | 27.08321 | 33562 ft | 423 kts | 316° |
| 2026-05-05 16:05 | 42.48961 | 27.05458 | 33896 ft | 424 kts | 316° |
| 2026-05-05 16:05 | 42.51022 | 27.02577 | 34040 ft | 426 kts | 315° |
| 2026-05-05 16:06 | 42.55206 | 26.96707 | 34054 ft | 439 kts | 315° |
| 2026-05-05 16:06 | 42.59442 | 26.90745 | 34048 ft | 436 kts | 316° |
| 2026-05-05 16:07 | 42.63606 | 26.84874 | 34040 ft | 433 kts | 316° |
| 2026-05-05 16:07 | 42.67787 | 26.78984 | 34041 ft | 433 kts | 316° |
| 2026-05-05 16:08 | 42.71969 | 26.73076 | 34036 ft | 433 kts | 316° |
| 2026-05-05 16:08 | 42.76145 | 26.67163 | 34035 ft | 433 kts | 316° |
| 2026-05-05 16:09 | 42.80324 | 26.61223 | 34034 ft | 434 kts | 316° |
| 2026-05-05 16:09 | 42.84816 | 26.55789 | 34030 ft | 432 kts | 322° |
| 2026-05-05 16:10 | 42.89438 | 26.50543 | 34034 ft | 432 kts | 322° |
| 2026-05-05 16:10 | 42.94058 | 26.45295 | 34044 ft | 431 kts | 322° |
| 2026-05-05 16:11 | 42.98652 | 26.40063 | 34049 ft | 429 kts | 322° |